createdAt,value
2023-02-15T00:02:53.372Z,1.61
2023-02-15T00:06:01.619Z,1.52
2023-02-15T00:09:08.570Z,1.42
2023-02-15T00:12:15.335Z,1.43
2023-02-15T00:15:23.814Z,1.18
2023-02-15T00:18:30.423Z,1.13
2023-02-15T00:21:39.320Z,1.19
2023-02-15T00:24:45.977Z,1.24
2023-02-15T00:27:51.831Z,1.24
2023-02-15T00:31:08.438Z,1.32
2023-02-15T00:34:20.256Z,1.18
2023-02-15T00:37:30.282Z,1.20
2023-02-15T00:40:36.152Z,1.21
2023-02-15T00:43:42.874Z,1.22
2023-02-15T00:46:51.298Z,1.23
2023-02-15T00:49:57.934Z,1.28
2023-02-15T00:53:03.786Z,1.20
2023-02-15T00:56:10.870Z,1.19
2023-02-15T00:59:17.108Z,1.12
2023-02-15T01:02:34.825Z,1.21
2023-02-15T01:05:42.168Z,1.21
2023-02-15T01:08:49.966Z,1.21
2023-02-15T01:11:55.740Z,1.13
2023-02-15T01:15:09.446Z,1.02
2023-02-15T01:18:22.162Z,1.07
2023-02-15T01:21:30.624Z,1.09
2023-02-15T01:24:36.810Z,1.06
2023-02-15T01:27:43.560Z,1.01
2023-02-15T01:30:49.504Z,0.80
2023-02-15T01:33:59.875Z,0.90
2023-02-15T01:37:06.330Z,0.85
2023-02-15T01:40:19.473Z,0.82
2023-02-15T01:43:48.391Z,0.83
2023-02-15T01:46:58.176Z,0.74
2023-02-15T01:50:16.499Z,0.73
2023-02-15T01:53:31.072Z,0.78
2023-02-15T01:56:43.745Z,0.76
2023-02-15T01:59:59.216Z,0.76
2023-02-15T02:03:08.344Z,0.60
2023-02-15T02:06:18.490Z,0.47
2023-02-15T02:09:25.985Z,0.48
2023-02-15T02:12:34.551Z,0.55
2023-02-15T02:15:55.967Z,0.61
2023-02-15T02:19:43.460Z,0.60
2023-02-15T02:23:22.574Z,0.56
2023-02-15T02:27:22.235Z,0.44
2023-02-15T02:31:00.795Z,0.33
2023-02-15T02:34:21.233Z,0.24
2023-02-15T02:37:42.820Z,0.13
2023-02-15T02:41:24.023Z,0.22
2023-02-15T02:44:50.494Z,0.23
2023-02-15T02:48:05.357Z,0.21
2023-02-15T02:51:15.296Z,0.25
2023-02-15T02:54:23.570Z,0.20
2023-02-15T02:57:34.055Z,0.24
2023-02-15T03:00:49.037Z,0.17
2023-02-15T03:04:07.457Z,-0.01
2023-02-15T03:07:23.887Z,-0.17
2023-02-15T03:10:33.490Z,-0.08
2023-02-15T03:13:40.796Z,0.04
2023-02-15T03:16:52.608Z,-0.07
2023-02-15T03:20:07.170Z,-0.01
2023-02-15T03:23:25.209Z,-0.07
2023-02-15T03:26:37.017Z,-0.11
2023-02-15T03:29:44.545Z,-0.01
2023-02-15T03:32:54.953Z,0.01
2023-02-15T03:36:13.378Z,-0.10
2023-02-15T03:39:36.890Z,-0.03
2023-02-15T03:42:45.559Z,-0.13
2023-02-15T03:46:02.297Z,-0.06
2023-02-15T03:49:18.715Z,-0.09
2023-02-15T03:52:31.981Z,-0.03
2023-02-15T03:55:41.133Z,-0.00
2023-02-15T03:59:00.229Z,-0.09
2023-02-15T04:02:23.569Z,-0.09
2023-02-15T04:05:30.249Z,-0.27
2023-02-15T04:08:48.240Z,-0.14
2023-02-15T04:11:57.739Z,-0.18
2023-02-15T04:15:15.869Z,-0.12
2023-02-15T04:18:22.600Z,-0.11
2023-02-15T04:21:44.091Z,-0.21
2023-02-15T04:25:03.108Z,-0.38
2023-02-15T04:28:12.075Z,-0.36
2023-02-15T04:31:18.881Z,-0.40
2023-02-15T04:34:26.453Z,-0.35
2023-02-15T04:37:33.262Z,-0.29
2023-02-15T04:40:39.086Z,-0.35
2023-02-15T04:43:48.363Z,-0.37
2023-02-15T04:46:54.158Z,-0.38
2023-02-15T04:50:00.967Z,-0.31
2023-02-15T04:53:06.814Z,-0.33
2023-02-15T04:56:13.709Z,-0.47
2023-02-15T04:59:22.583Z,-0.46
2023-02-15T05:02:29.781Z,-0.40
2023-02-15T05:05:35.832Z,-0.40
2023-02-15T05:08:42.538Z,-0.43
2023-02-15T05:11:48.478Z,-0.48
2023-02-15T05:14:57.730Z,-0.53
2023-02-15T05:18:03.582Z,-0.60
2023-02-15T05:21:10.282Z,-0.45
2023-02-15T05:24:31.245Z,-0.38
2023-02-15T05:27:50.291Z,-0.32
2023-02-15T05:31:10.354Z,-0.39
2023-02-15T05:34:17.213Z,-0.29
2023-02-15T05:37:23.279Z,-0.35
2023-02-15T05:40:30.153Z,-0.51
2023-02-15T05:43:37.132Z,-0.46
2023-02-15T05:46:46.451Z,-0.43
2023-02-15T05:49:52.377Z,-0.53
2023-02-15T05:52:59.083Z,-0.56
2023-02-15T05:56:05.732Z,-0.49
2023-02-15T05:59:13.882Z,-0.39
2023-02-15T06:02:22.646Z,-0.39
2023-02-15T06:05:29.465Z,-0.46
2023-02-15T06:08:35.781Z,-0.43
2023-02-15T06:11:42.956Z,-0.46
2023-02-15T06:14:48.944Z,-0.48
2023-02-15T06:17:58.281Z,-0.59
2023-02-15T06:21:04.296Z,-0.66
2023-02-15T06:24:12.815Z,-0.55
2023-02-15T06:27:19.047Z,-0.68
2023-02-15T06:30:26.029Z,-0.50
2023-02-15T06:33:35.135Z,-0.45
2023-02-15T06:36:42.040Z,-0.57
2023-02-15T06:39:48.186Z,-0.44
2023-02-15T06:42:54.983Z,-0.31
2023-02-15T06:46:01.162Z,-0.35
2023-02-15T06:49:11.201Z,-0.44
2023-02-15T06:52:17.180Z,-0.50
2023-02-15T06:55:23.900Z,-0.50
2023-02-15T06:58:29.716Z,-0.46
2023-02-15T07:01:38.183Z,-0.51
2023-02-15T07:04:46.707Z,-0.49
2023-02-15T07:07:53.537Z,-0.23
2023-02-15T07:11:21.470Z,-0.28
2023-02-15T07:14:29.020Z,-0.21
2023-02-15T07:17:36.441Z,-0.29
2023-02-15T07:20:45.956Z,-0.30
2023-02-15T07:23:51.796Z,-0.24
2023-02-15T07:26:58.737Z,-0.21
2023-02-15T07:30:05.629Z,-0.27
2023-02-15T07:33:28.346Z,-0.05
2023-02-15T07:36:36.795Z,-0.05
2023-02-15T07:39:43.776Z,-0.10
2023-02-15T07:42:49.557Z,0.07
2023-02-15T07:45:57.391Z,0.08
2023-02-15T07:49:03.221Z,-0.04
2023-02-15T07:52:12.603Z,-0.02
2023-02-15T07:55:19.760Z,0.01
2023-02-15T07:58:47.074Z,0.02
2023-02-15T08:01:54.140Z,-0.11
2023-02-15T08:05:00.890Z,0.02
2023-02-15T08:08:09.571Z,0.46
2023-02-15T08:11:30.367Z,0.98
2023-02-15T08:14:36.347Z,0.98
2023-02-15T08:17:43.297Z,1.30
2023-02-15T08:20:53.800Z,1.59
2023-02-15T08:24:03.635Z,2.12
2023-02-15T08:27:11.983Z,2.83
2023-02-15T08:30:19.313Z,3.07
2023-02-15T08:33:25.210Z,3.76
2023-02-15T08:36:34.725Z,4.08
2023-02-15T08:39:44.201Z,4.79
2023-02-15T08:42:50.857Z,5.59
2023-02-15T08:45:56.848Z,5.30
2023-02-15T08:49:03.980Z,5.92
2023-02-15T08:52:09.842Z,6.07
2023-02-15T08:55:19.376Z,6.17
2023-02-15T08:58:25.290Z,5.12
2023-02-15T09:01:35.677Z,4.53
2023-02-15T09:04:41.680Z,6.11
2023-02-15T09:07:48.341Z,5.38
2023-02-15T09:10:57.406Z,4.89
2023-02-15T09:14:09.339Z,4.39
2023-02-15T09:17:16.162Z,5.51
2023-02-15T09:20:23.554Z,5.36
2023-02-15T09:23:29.475Z,5.59
2023-02-15T09:26:42.671Z,6.81
2023-02-15T09:29:48.533Z,6.35
2023-02-15T09:32:55.426Z,5.94
2023-02-15T09:36:01.290Z,6.77
2023-02-15T09:39:13.048Z,6.37
2023-02-15T09:42:54.000Z,7.52
2023-02-15T09:46:33.375Z,7.82
2023-02-15T09:49:56.634Z,7.20
2023-02-15T09:53:37.617Z,7.93
2023-02-15T09:56:54.133Z,7.38
2023-02-15T10:00:22.795Z,7.19
2023-02-15T10:03:54.984Z,8.22
2023-02-15T10:07:27.197Z,8.21
2023-02-15T10:10:49.287Z,9.28
2023-02-15T10:14:23.360Z,9.59
2023-02-15T10:17:56.551Z,7.75
2023-02-15T10:21:24.422Z,8.99
2023-02-15T10:24:58.751Z,9.75
2023-02-15T10:28:13.326Z,9.30
2023-02-15T10:31:31.266Z,8.75
2023-02-15T10:34:46.811Z,10.04
2023-02-15T10:38:11.672Z,10.63
2023-02-15T10:41:40.892Z,8.59
2023-02-15T10:45:11.099Z,9.73
2023-02-15T10:48:52.517Z,10.22
2023-02-15T10:52:24.628Z,10.41
2023-02-15T10:55:52.896Z,10.04
2023-02-15T10:59:37.114Z,9.99
2023-02-15T11:03:19.131Z,10.59
2023-02-15T11:06:30.987Z,11.38
2023-02-15T11:09:49.371Z,11.24
2023-02-15T11:12:56.744Z,11.27
2023-02-15T11:16:12.418Z,11.14
2023-02-15T11:19:28.138Z,11.38
2023-02-15T11:22:38.787Z,11.33
2023-02-15T11:25:58.736Z,11.19
2023-02-15T11:29:21.967Z,9.91
2023-02-15T11:32:34.384Z,10.71
2023-02-15T11:35:55.868Z,9.12
2023-02-15T11:39:09.073Z,8.86
2023-02-15T11:42:24.989Z,9.49
2023-02-15T11:45:35.571Z,9.76
2023-02-15T11:48:43.663Z,9.86
2023-02-15T11:51:51.781Z,10.68
2023-02-15T11:54:59.368Z,9.50
2023-02-15T11:58:26.889Z,10.32
2023-02-15T12:01:39.133Z,11.16
2023-02-15T12:04:56.632Z,11.71
2023-02-15T12:08:18.831Z,11.22
2023-02-15T12:11:37.457Z,11.57
2023-02-15T12:14:53.589Z,10.87
2023-02-15T12:17:59.669Z,11.64
2023-02-15T12:21:14.650Z,10.90
2023-02-15T12:24:26.118Z,10.73
2023-02-15T12:27:38.357Z,10.94
2023-02-15T12:30:47.872Z,11.05
2023-02-15T12:34:04.953Z,10.64
2023-02-15T12:37:25.716Z,10.93
2023-02-15T12:40:35.251Z,11.13
2023-02-15T12:43:44.432Z,11.27
2023-02-15T12:47:06.560Z,10.97
2023-02-15T12:50:23.096Z,10.50
2023-02-15T12:53:38.980Z,11.00
2023-02-15T12:56:44.987Z,10.43
2023-02-15T12:59:54.934Z,10.48
2023-02-15T13:03:17.454Z,10.15
2023-02-15T13:06:25.931Z,10.42
2023-02-15T13:09:44.230Z,9.78
2023-02-15T13:12:55.282Z,10.46
2023-02-15T13:16:08.873Z,10.26
2023-02-15T13:19:24.696Z,9.58
2023-02-15T13:22:44.162Z,9.06
2023-02-15T13:25:52.897Z,8.88
2023-02-15T13:29:06.353Z,9.31
2023-02-15T13:32:31.185Z,9.41
2023-02-15T13:35:56.641Z,10.33
2023-02-15T13:39:23.138Z,9.10
2023-02-15T13:42:39.366Z,8.47
2023-02-15T13:46:15.256Z,7.98
2023-02-15T13:49:49.682Z,7.57
2023-02-15T13:53:25.403Z,6.93
2023-02-15T13:56:49.858Z,6.91
2023-02-15T14:00:16.213Z,6.67
2023-02-15T14:04:02.333Z,6.12
2023-02-15T14:07:40.092Z,6.18
2023-02-15T14:11:07.300Z,5.94
2023-02-15T14:14:50.652Z,5.83
2023-02-15T14:18:16.006Z,5.79
2023-02-15T14:21:34.576Z,5.77
2023-02-15T14:24:50.928Z,5.94
2023-02-15T14:28:15.341Z,6.01
2023-02-15T14:31:34.954Z,5.90
2023-02-15T14:34:53.504Z,6.13
2023-02-15T14:38:15.339Z,6.16
2023-02-15T14:41:35.795Z,6.21
2023-02-15T14:44:53.822Z,6.28
2023-02-15T14:48:16.316Z,5.95
2023-02-15T14:51:59.245Z,6.11
2023-02-15T14:55:06.661Z,6.10
2023-02-15T14:58:17.534Z,6.23
2023-02-15T15:01:36.234Z,6.23
2023-02-15T15:04:48.398Z,6.10
2023-02-15T15:08:01.567Z,6.22
2023-02-15T15:11:47.662Z,6.17
2023-02-15T15:14:56.022Z,6.02
2023-02-15T15:18:08.357Z,5.85
2023-02-15T15:21:15.287Z,5.72
2023-02-15T15:24:55.090Z,5.58
2023-02-15T15:28:01.943Z,5.48
2023-02-15T15:31:23.153Z,5.44
2023-02-15T15:35:15.845Z,5.31
2023-02-15T15:38:51.821Z,5.18
2023-02-15T15:42:19.443Z,5.12
2023-02-15T15:46:02.332Z,5.12
2023-02-15T15:49:18.181Z,5.00
2023-02-15T15:52:28.470Z,4.94
2023-02-15T15:55:38.468Z,4.76
2023-02-15T15:58:54.467Z,4.67
2023-02-15T16:02:08.757Z,4.57
2023-02-15T16:05:17.051Z,4.48
2023-02-15T16:08:37.281Z,4.35
2023-02-15T16:11:45.206Z,4.26
2023-02-15T16:14:54.606Z,4.16
2023-02-15T16:18:04.107Z,4.07
2023-02-15T16:21:21.426Z,4.24
2023-02-15T16:25:05.478Z,4.17
2023-02-15T16:28:19.678Z,4.11
2023-02-15T16:31:26.939Z,4.04
2023-02-15T16:34:33.871Z,3.90
2023-02-15T16:37:40.286Z,3.76
2023-02-15T16:40:58.882Z,3.61
2023-02-15T16:44:13.965Z,3.45
2023-02-15T16:47:28.417Z,3.35
2023-02-15T16:50:40.112Z,3.18
2023-02-15T16:53:52.789Z,3.06
2023-02-15T16:57:02.827Z,2.91
2023-02-15T17:00:24.053Z,2.87
2023-02-15T17:03:31.405Z,2.69
2023-02-15T17:06:38.262Z,2.60
2023-02-15T17:09:55.945Z,2.56
2023-02-15T17:13:14.764Z,2.48
2023-02-15T17:16:34.589Z,2.40
2023-02-15T17:19:54.402Z,2.31
2023-02-15T17:23:02.421Z,2.20
2023-02-15T17:26:21.779Z,2.22
2023-02-15T17:29:40.178Z,2.11
2023-02-15T17:32:59.763Z,2.05
2023-02-15T17:36:17.113Z,1.91
2023-02-15T17:39:26.276Z,1.83
2023-02-15T17:42:32.363Z,1.77
2023-02-15T17:45:52.751Z,1.67
2023-02-15T17:48:59.699Z,1.56
2023-02-15T17:52:08.687Z,1.41
2023-02-15T17:55:32.451Z,1.39
2023-02-15T17:58:39.922Z,1.33
2023-02-15T18:02:05.620Z,1.20
2023-02-15T18:05:30.458Z,1.18
2023-02-15T18:08:48.646Z,1.09
2023-02-15T18:11:55.591Z,1.05
2023-02-15T18:15:03.013Z,1.00
2023-02-15T18:18:16.592Z,0.97
2023-02-15T18:21:22.650Z,0.84
2023-02-15T18:24:30.418Z,0.82
2023-02-15T18:27:36.372Z,0.64
2023-02-15T18:30:45.557Z,0.65
2023-02-15T18:33:59.145Z,0.62
2023-02-15T18:37:14.054Z,0.61
2023-02-15T18:40:22.346Z,0.51
2023-02-15T18:43:29.163Z,0.47
2023-02-15T18:46:35.051Z,0.46
2023-02-15T18:49:44.599Z,0.45
2023-02-15T18:52:53.987Z,0.39
2023-02-15T18:56:00.886Z,0.27
2023-02-15T18:59:06.783Z,0.31
2023-02-15T19:02:17.485Z,0.15
2023-02-15T19:05:27.776Z,0.13
2023-02-15T19:08:34.828Z,0.12
2023-02-15T19:11:40.747Z,0.06
2023-02-15T19:14:47.418Z,0.11
2023-02-15T19:17:54.207Z,0.02
2023-02-15T19:21:03.610Z,-0.05
2023-02-15T19:24:24.595Z,-0.10
2023-02-15T19:27:36.301Z,-0.14
2023-02-15T19:30:42.383Z,-0.22
2023-02-15T19:33:49.194Z,-0.18
2023-02-15T19:36:59.547Z,-0.31
2023-02-15T19:40:08.062Z,-0.26
2023-02-15T19:43:25.820Z,-0.21
2023-02-15T19:46:34.319Z,-0.23
2023-02-15T19:49:40.543Z,-0.37
2023-02-15T19:52:51.150Z,-0.46
2023-02-15T19:55:58.023Z,-0.46
2023-02-15T19:59:08.076Z,-0.42
2023-02-15T20:02:20.402Z,-0.50
2023-02-15T20:05:29.286Z,-0.64
2023-02-15T20:08:38.084Z,-0.67
2023-02-15T20:11:44.879Z,-0.71
2023-02-15T20:14:50.986Z,-0.85
2023-02-15T20:17:59.976Z,-0.95
2023-02-15T20:21:07.955Z,-0.97
2023-02-15T20:24:23.204Z,-1.03
2023-02-15T20:27:29.069Z,-0.99
2023-02-15T20:30:36.367Z,-1.15
2023-02-15T20:33:42.391Z,-1.21
2023-02-15T20:36:49.286Z,-1.15
2023-02-15T20:39:58.487Z,-1.31
2023-02-15T20:43:05.472Z,-1.26
2023-02-15T20:46:11.599Z,-1.30
2023-02-15T20:49:18.669Z,-1.27
2023-02-15T20:52:24.822Z,-1.24
2023-02-15T20:55:35.904Z,-1.17
2023-02-15T20:58:42.129Z,-1.31
2023-02-15T21:01:49.274Z,-1.31
2023-02-15T21:04:55.738Z,-1.23
2023-02-15T21:08:03.913Z,-1.28
2023-02-15T21:11:23.257Z,-1.25
2023-02-15T21:14:32.142Z,-1.26
2023-02-15T21:17:38.053Z,-1.36
2023-02-15T21:20:50.480Z,-1.32
2023-02-15T21:23:56.938Z,-1.23
2023-02-15T21:27:07.449Z,-1.31
2023-02-15T21:30:20.794Z,-1.27
2023-02-15T21:33:29.601Z,-1.38
2023-02-15T21:36:35.653Z,-1.31
2023-02-15T21:39:42.679Z,-1.25
2023-02-15T21:43:04.039Z,-1.24
2023-02-15T21:46:31.307Z,-1.45
2023-02-15T21:49:37.297Z,-1.60
2023-02-15T21:52:41.537Z,-1.55
2023-02-15T21:55:47.490Z,-1.64
2023-02-15T21:58:56.834Z,-1.69
2023-02-15T22:02:02.898Z,-1.66
2023-02-15T22:05:17.900Z,-1.61
2023-02-15T22:08:23.938Z,-1.71
2023-02-15T22:11:32.942Z,-1.77
2023-02-15T22:14:45.464Z,-1.75
2023-02-15T22:17:57.715Z,-1.88
2023-02-15T22:21:05.238Z,-1.94
2023-02-15T22:24:12.109Z,-1.86
2023-02-15T22:27:25.934Z,-1.77
2023-02-15T22:30:39.762Z,-1.66
2023-02-15T22:33:46.574Z,-1.70
2023-02-15T22:36:53.213Z,-1.67
2023-02-15T22:39:59.068Z,-1.70
2023-02-15T22:43:09.496Z,-1.70
2023-02-15T22:46:22.591Z,-1.78
2023-02-15T22:49:29.467Z,-1.78
2023-02-15T22:52:35.265Z,-1.73
2023-02-15T22:55:42.334Z,-1.76
2023-02-15T22:58:51.059Z,-1.80
2023-02-15T23:02:03.584Z,-1.80
2023-02-15T23:05:17.436Z,-1.83
2023-02-15T23:08:25.171Z,-1.75
2023-02-15T23:11:31.617Z,-1.70
2023-02-15T23:14:40.255Z,-1.70
2023-02-15T23:17:48.833Z,-1.84
2023-02-15T23:21:00.411Z,-1.77
2023-02-15T23:24:22.517Z,-1.74
2023-02-15T23:27:41.543Z,-1.81
2023-02-15T23:30:47.824Z,-1.81
2023-02-15T23:33:57.557Z,-1.85
2023-02-15T23:37:03.439Z,-1.95
2023-02-15T23:40:30.492Z,-2.00
2023-02-15T23:43:36.519Z,-2.01
2023-02-15T23:46:46.573Z,-2.11
2023-02-15T23:49:54.994Z,-2.05
2023-02-15T23:53:03.564Z,-1.92
2023-02-15T23:56:10.302Z,-2.04
2023-02-15T23:59:24.350Z,-1.90
